sensor_id;sensor_type;location;lat;lon;timestamp;temperature;humidity
20590;DHT22;10453;50.810;12.540;2022-07-06T00:03:02;14.30;99.90
20590;DHT22;10453;50.810;12.540;2022-07-06T00:07:19;14.20;99.90
20590;DHT22;10453;50.810;12.540;2022-07-06T00:11:38;14.20;99.90
20590;DHT22;10453;50.810;12.540;2022-07-06T00:15:56;14.10;99.90
20590;DHT22;10453;50.810;12.540;2022-07-06T00:20:13;13.90;99.90
20590;DHT22;10453;50.810;12.540;2022-07-06T00:24:30;13.80;99.90
20590;DHT22;10453;50.810;12.540;2022-07-06T00:28:48;13.90;99.90
20590;DHT22;10453;50.810;12.540;2022-07-06T00:33:05;14.10;99.90
20590;DHT22;10453;50.810;12.540;2022-07-06T00:37:22;14.20;99.90
20590;DHT22;10453;50.810;12.540;2022-07-06T00:41:39;14.10;99.90
20590;DHT22;10453;50.810;12.540;2022-07-06T00:45:56;14.10;99.90
20590;DHT22;10453;50.810;12.540;2022-07-06T00:50:15;14.20;99.90
20590;DHT22;10453;50.810;12.540;2022-07-06T00:54:39;14.30;99.90
20590;DHT22;10453;50.810;12.540;2022-07-06T00:59:00;14.30;99.90
20590;DHT22;10453;50.810;12.540;2022-07-06T01:03:17;14.30;99.90
20590;DHT22;10453;50.810;12.540;2022-07-06T01:07:36;14.00;99.90
20590;DHT22;10453;50.810;12.540;2022-07-06T01:11:54;14.00;99.90
20590;DHT22;10453;50.810;12.540;2022-07-06T01:16:11;14.00;99.90
20590;DHT22;10453;50.810;12.540;2022-07-06T01:20:29;14.00;99.90
20590;DHT22;10453;50.810;12.540;2022-07-06T01:24:46;14.00;99.90
20590;DHT22;10453;50.810;12.540;2022-07-06T01:29:03;14.10;99.90
20590;DHT22;10453;50.810;12.540;2022-07-06T01:33:20;14.10;99.90
20590;DHT22;10453;50.810;12.540;2022-07-06T01:37:38;14.10;99.90
20590;DHT22;10453;50.810;12.540;2022-07-06T01:41:55;14.20;99.90
20590;DHT22;10453;50.810;12.540;2022-07-06T01:46:13;14.30;99.90
20590;DHT22;10453;50.810;12.540;2022-07-06T01:50:30;14.10;99.90
20590;DHT22;10453;50.810;12.540;2022-07-06T01:54:47;14.20;99.90
20590;DHT22;10453;50.810;12.540;2022-07-06T01:59:05;14.10;99.90
20590;DHT22;10453;50.810;12.540;2022-07-06T02:03:22;14.00;99.90
20590;DHT22;10453;50.810;12.540;2022-07-06T02:07:39;13.90;99.90
20590;DHT22;10453;50.810;12.540;2022-07-06T02:11:56;13.80;99.90
20590;DHT22;10453;50.810;12.540;2022-07-06T02:16:14;13.80;99.90
20590;DHT22;10453;50.810;12.540;2022-07-06T02:20:31;13.60;99.90
20590;DHT22;10453;50.810;12.540;2022-07-06T02:24:49;13.50;99.90
20590;DHT22;10453;50.810;12.540;2022-07-06T02:29:06;13.50;99.90
20590;DHT22;10453;50.810;12.540;2022-07-06T02:33:23;13.40;99.90
20590;DHT22;10453;50.810;12.540;2022-07-06T02:37:41;13.40;99.90
20590;DHT22;10453;50.810;12.540;2022-07-06T02:41:58;13.30;99.90
20590;DHT22;10453;50.810;12.540;2022-07-06T02:46:15;13.30;99.90
20590;DHT22;10453;50.810;12.540;2022-07-06T02:50:33;13.20;99.90
20590;DHT22;10453;50.810;12.540;2022-07-06T02:54:50;13.10;99.90
20590;DHT22;10453;50.810;12.540;2022-07-06T02:59:07;13.10;99.90
20590;DHT22;10453;50.810;12.540;2022-07-06T03:03:30;13.00;99.90
20590;DHT22;10453;50.810;12.540;2022-07-06T03:07:47;13.00;99.90
20590;DHT22;10453;50.810;12.540;2022-07-06T03:12:05;12.90;99.90
20590;DHT22;10453;50.810;12.540;2022-07-06T03:16:22;12.80;99.90
20590;DHT22;10453;50.810;12.540;2022-07-06T03:20:39;12.70;99.90
20590;DHT22;10453;50.810;12.540;2022-07-06T03:24:57;12.60;99.90
20590;DHT22;10453;50.810;12.540;2022-07-06T03:29:14;12.50;99.90
20590;DHT22;10453;50.810;12.540;2022-07-06T03:33:31;12.40;99.90
20590;DHT22;10453;50.810;12.540;2022-07-06T03:37:48;12.30;99.90
20590;DHT22;10453;50.810;12.540;2022-07-06T03:42:05;12.30;99.90
20590;DHT22;10453;50.810;12.540;2022-07-06T03:46:23;12.30;99.90
20590;DHT22;10453;50.810;12.540;2022-07-06T03:50:40;12.30;99.90
20590;DHT22;10453;50.810;12.540;2022-07-06T03:54:57;12.30;99.90
20590;DHT22;10453;50.810;12.540;2022-07-06T03:59:17;12.40;99.90
20590;DHT22;10453;50.810;12.540;2022-07-06T04:03:34;12.40;99.90
20590;DHT22;10453;50.810;12.540;2022-07-06T04:07:52;12.50;99.90
20590;DHT22;10453;50.810;12.540;2022-07-06T04:12:09;12.50;99.90
20590;DHT22;10453;50.810;12.540;2022-07-06T04:16:26;12.60;99.90
20590;DHT22;10453;50.810;12.540;2022-07-06T04:20:43;12.70;99.90
20590;DHT22;10453;50.810;12.540;2022-07-06T04:25:01;12.70;99.90
20590;DHT22;10453;50.810;12.540;2022-07-06T04:29:18;12.60;99.90
20590;DHT22;10453;50.810;12.540;2022-07-06T04:33:35;12.50;99.90
20590;DHT22;10453;50.810;12.540;2022-07-06T04:37:52;12.60;99.90
20590;DHT22;10453;50.810;12.540;2022-07-06T04:42:10;12.60;99.90
20590;DHT22;10453;50.810;12.540;2022-07-06T04:46:27;12.60;99.90
20590;DHT22;10453;50.810;12.540;2022-07-06T04:50:44;12.70;99.90
20590;DHT22;10453;50.810;12.540;2022-07-06T04:55:02;12.70;99.90
20590;DHT22;10453;50.810;12.540;2022-07-06T04:59:21;12.70;99.90
20590;DHT22;10453;50.810;12.540;2022-07-06T05:03:38;12.70;99.90
20590;DHT22;10453;50.810;12.540;2022-07-06T05:07:57;12.80;99.90
20590;DHT22;10453;50.810;12.540;2022-07-06T05:12:14;12.90;99.90
20590;DHT22;10453;50.810;12.540;2022-07-06T05:16:32;13.00;99.90
20590;DHT22;10453;50.810;12.540;2022-07-06T05:20:49;13.10;99.90
20590;DHT22;10453;50.810;12.540;2022-07-06T05:25:07;13.20;99.90
20590;DHT22;10453;50.810;12.540;2022-07-06T05:29:24;13.40;99.90
20590;DHT22;10453;50.810;12.540;2022-07-06T05:33:42;13.60;99.90
20590;DHT22;10453;50.810;12.540;2022-07-06T05:37:59;14.00;99.90
20590;DHT22;10453;50.810;12.540;2022-07-06T05:42:16;14.20;99.90
20590;DHT22;10453;50.810;12.540;2022-07-06T05:46:33;14.10;99.90
20590;DHT22;10453;50.810;12.540;2022-07-06T05:50:51;14.00;99.90
20590;DHT22;10453;50.810;12.540;2022-07-06T05:55:09;13.90;99.90
20590;DHT22;10453;50.810;12.540;2022-07-06T05:59:27;13.90;99.90
20590;DHT22;10453;50.810;12.540;2022-07-06T06:03:44;14.00;99.90
20590;DHT22;10453;50.810;12.540;2022-07-06T06:08:01;14.30;99.90
20590;DHT22;10453;50.810;12.540;2022-07-06T06:12:19;14.40;99.90
20590;DHT22;10453;50.810;12.540;2022-07-06T06:16:36;14.60;99.90
20590;DHT22;10453;50.810;12.540;2022-07-06T06:20:54;14.90;99.90
20590;DHT22;10453;50.810;12.540;2022-07-06T06:25:11;15.20;99.90
20590;DHT22;10453;50.810;12.540;2022-07-06T06:29:28;15.20;99.90
20590;DHT22;10453;50.810;12.540;2022-07-06T06:33:46;15.40;99.90
20590;DHT22;10453;50.810;12.540;2022-07-06T06:38:03;15.50;99.90
20590;DHT22;10453;50.810;12.540;2022-07-06T06:42:20;15.50;99.90
20590;DHT22;10453;50.810;12.540;2022-07-06T06:46:37;15.70;99.90
20590;DHT22;10453;50.810;12.540;2022-07-06T06:50:57;16.00;99.90
20590;DHT22;10453;50.810;12.540;2022-07-06T06:55:14;16.30;99.90
20590;DHT22;10453;50.810;12.540;2022-07-06T06:59:32;16.40;99.90
20590;DHT22;10453;50.810;12.540;2022-07-06T07:03:50;16.40;99.90
20590;DHT22;10453;50.810;12.540;2022-07-06T07:08:08;16.70;99.90
20590;DHT22;10453;50.810;12.540;2022-07-06T07:12:25;16.80;99.90
20590;DHT22;10453;50.810;12.540;2022-07-06T07:16:42;16.90;99.90
20590;DHT22;10453;50.810;12.540;2022-07-06T07:20:59;17.10;99.90
20590;DHT22;10453;50.810;12.540;2022-07-06T07:25:17;17.10;99.90
20590;DHT22;10453;50.810;12.540;2022-07-06T07:29:34;17.40;99.90
20590;DHT22;10453;50.810;12.540;2022-07-06T07:33:51;17.10;99.90
20590;DHT22;10453;50.810;12.540;2022-07-06T07:38:14;17.40;99.90
20590;DHT22;10453;50.810;12.540;2022-07-06T07:42:32;17.70;99.90
20590;DHT22;10453;50.810;12.540;2022-07-06T07:46:49;17.20;99.90
20590;DHT22;10453;50.810;12.540;2022-07-06T07:51:07;17.50;99.90
20590;DHT22;10453;50.810;12.540;2022-07-06T07:55:24;18.50;99.90
20590;DHT22;10453;50.810;12.540;2022-07-06T07:59:58;18.80;99.90
20590;DHT22;10453;50.810;12.540;2022-07-06T08:04:16;18.50;99.90
20590;DHT22;10453;50.810;12.540;2022-07-06T08:08:33;18.30;99.90
20590;DHT22;10453;50.810;12.540;2022-07-06T08:12:51;18.50;99.90
20590;DHT22;10453;50.810;12.540;2022-07-06T08:17:08;18.40;99.90
20590;DHT22;10453;50.810;12.540;2022-07-06T08:21:25;18.10;99.90
20590;DHT22;10453;50.810;12.540;2022-07-06T08:25:43;18.10;99.90
20590;DHT22;10453;50.810;12.540;2022-07-06T08:30:03;18.20;99.90
20590;DHT22;10453;50.810;12.540;2022-07-06T08:34:21;18.50;99.90
20590;DHT22;10453;50.810;12.540;2022-07-06T08:38:38;19.30;99.90
20590;DHT22;10453;50.810;12.540;2022-07-06T08:42:56;19.40;99.90
20590;DHT22;10453;50.810;12.540;2022-07-06T08:47:14;20.50;99.90
20590;DHT22;10453;50.810;12.540;2022-07-06T08:51:32;20.30;99.90
20590;DHT22;10453;50.810;12.540;2022-07-06T08:55:51;20.10;99.90
20590;DHT22;10453;50.810;12.540;2022-07-06T09:00:09;21.40;99.90
20590;DHT22;10453;50.810;12.540;2022-07-06T09:04:28;20.30;99.90
20590;DHT22;10453;50.810;12.540;2022-07-06T09:08:46;21.60;97.20
20590;DHT22;10453;50.810;12.540;2022-07-06T09:13:05;22.40;93.20
20590;DHT22;10453;50.810;12.540;2022-07-06T09:17:26;22.50;89.00
20590;DHT22;10453;50.810;12.540;2022-07-06T09:21:44;23.50;94.40
20590;DHT22;10453;50.810;12.540;2022-07-06T09:26:07;23.60;80.20
20590;DHT22;10453;50.810;12.540;2022-07-06T09:30:26;23.00;83.20
20590;DHT22;10453;50.810;12.540;2022-07-06T09:34:45;23.40;79.00
20590;DHT22;10453;50.810;12.540;2022-07-06T09:39:22;23.80;76.40
20590;DHT22;10453;50.810;12.540;2022-07-06T09:43:40;24.20;70.60
20590;DHT22;10453;50.810;12.540;2022-07-06T09:48:14;23.40;69.30
20590;DHT22;10453;50.810;12.540;2022-07-06T09:52:35;23.90;69.60
20590;DHT22;10453;50.810;12.540;2022-07-06T09:56:54;21.60;74.30
20590;DHT22;10453;50.810;12.540;2022-07-06T10:01:11;22.60;71.90
20590;DHT22;10453;50.810;12.540;2022-07-06T10:05:28;23.10;73.40
20590;DHT22;10453;50.810;12.540;2022-07-06T10:09:49;22.10;73.90
20590;DHT22;10453;50.810;12.540;2022-07-06T10:14:07;20.90;75.70
20590;DHT22;10453;50.810;12.540;2022-07-06T10:18:25;20.20;82.70
20590;DHT22;10453;50.810;12.540;2022-07-06T10:22:44;20.10;82.40
20590;DHT22;10453;50.810;12.540;2022-07-06T10:27:02;21.80;90.10
20590;DHT22;10453;50.810;12.540;2022-07-06T10:31:20;23.70;77.80
20590;DHT22;10453;50.810;12.540;2022-07-06T10:35:40;25.70;68.80
20590;DHT22;10453;50.810;12.540;2022-07-06T10:39:58;22.90;69.60
20590;DHT22;10453;50.810;12.540;2022-07-06T10:44:44;21.00;74.70
20590;DHT22;10453;50.810;12.540;2022-07-06T10:49:15;20.40;73.80
20590;DHT22;10453;50.810;12.540;2022-07-06T10:53:58;21.50;73.20
20590;DHT22;10453;50.810;12.540;2022-07-06T10:58:15;24.50;78.80
20590;DHT22;10453;50.810;12.540;2022-07-06T11:02:51;25.80;65.80
20590;DHT22;10453;50.810;12.540;2022-07-06T11:07:09;22.80;69.90
20590;DHT22;10453;50.810;12.540;2022-07-06T11:15:50;23.40;73.30
20590;DHT22;10453;50.810;12.540;2022-07-06T11:20:11;25.20;62.50
20590;DHT22;10453;50.810;12.540;2022-07-06T11:24:30;24.60;60.90
20590;DHT22;10453;50.810;12.540;2022-07-06T11:28:47;26.20;58.20
20590;DHT22;10453;50.810;12.540;2022-07-06T11:33:05;25.30;62.10
20590;DHT22;10453;50.810;12.540;2022-07-06T11:37:22;23.30;63.60
20590;DHT22;10453;50.810;12.540;2022-07-06T11:41:41;22.60;63.80
20590;DHT22;10453;50.810;12.540;2022-07-06T11:46:06;22.20;62.60
20590;DHT22;10453;50.810;12.540;2022-07-06T11:50:24;22.80;64.20
20590;DHT22;10453;50.810;12.540;2022-07-06T11:54:42;24.10;62.40
20590;DHT22;10453;50.810;12.540;2022-07-06T11:59:01;25.50;59.90
20590;DHT22;10453;50.810;12.540;2022-07-06T12:03:18;22.90;64.10
20590;DHT22;10453;50.810;12.540;2022-07-06T12:07:42;21.90;66.30
20590;DHT22;10453;50.810;12.540;2022-07-06T12:11:59;21.70;68.40
20590;DHT22;10453;50.810;12.540;2022-07-06T12:16:20;24.90;67.10
20590;DHT22;10453;50.810;12.540;2022-07-06T12:20:40;25.20;60.90
20590;DHT22;10453;50.810;12.540;2022-07-06T12:24:57;25.40;59.30
20590;DHT22;10453;50.810;12.540;2022-07-06T12:29:22;25.10;57.00
20590;DHT22;10453;50.810;12.540;2022-07-06T12:33:39;23.80;61.10
20590;DHT22;10453;50.810;12.540;2022-07-06T12:38:12;23.40;61.70
20590;DHT22;10453;50.810;12.540;2022-07-06T12:42:30;25.30;60.20
20590;DHT22;10453;50.810;12.540;2022-07-06T12:46:50;26.20;59.80
20590;DHT22;10453;50.810;12.540;2022-07-06T12:51:07;26.40;55.20
20590;DHT22;10453;50.810;12.540;2022-07-06T12:55:29;25.90;57.50
20590;DHT22;10453;50.810;12.540;2022-07-06T13:04:10;23.70;60.70
20590;DHT22;10453;50.810;12.540;2022-07-06T13:08:28;22.90;60.10
20590;DHT22;10453;50.810;12.540;2022-07-06T13:12:45;23.60;60.50
20590;DHT22;10453;50.810;12.540;2022-07-06T13:17:02;25.80;55.50
20590;DHT22;10453;50.810;12.540;2022-07-06T13:21:20;24.10;56.70
20590;DHT22;10453;50.810;12.540;2022-07-06T13:25:37;23.10;60.30
20590;DHT22;10453;50.810;12.540;2022-07-06T13:29:54;25.10;56.50
20590;DHT22;10453;50.810;12.540;2022-07-06T13:34:12;25.20;56.70
20590;DHT22;10453;50.810;12.540;2022-07-06T13:38:30;23.40;58.30
20590;DHT22;10453;50.810;12.540;2022-07-06T13:42:48;25.40;63.40
20590;DHT22;10453;50.810;12.540;2022-07-06T13:47:06;27.30;52.70
20590;DHT22;10453;50.810;12.540;2022-07-06T13:51:25;27.90;52.70
20590;DHT22;10453;50.810;12.540;2022-07-06T13:55:43;26.20;51.00
20590;DHT22;10453;50.810;12.540;2022-07-06T14:00:02;23.70;57.40
20590;DHT22;10453;50.810;12.540;2022-07-06T14:04:19;24.30;54.80
20590;DHT22;10453;50.810;12.540;2022-07-06T14:08:37;25.00;52.90
20590;DHT22;10453;50.810;12.540;2022-07-06T14:12:55;24.30;53.20
20590;DHT22;10453;50.810;12.540;2022-07-06T14:17:13;24.70;53.90
20590;DHT22;10453;50.810;12.540;2022-07-06T14:21:31;23.60;55.70
20590;DHT22;10453;50.810;12.540;2022-07-06T14:25:50;22.70;54.90
20590;DHT22;10453;50.810;12.540;2022-07-06T14:30:07;25.50;52.20
20590;DHT22;10453;50.810;12.540;2022-07-06T14:34:25;25.70;51.80
20590;DHT22;10453;50.810;12.540;2022-07-06T14:38:42;25.20;52.10
20590;DHT22;10453;50.810;12.540;2022-07-06T14:43:00;23.70;53.70
20590;DHT22;10453;50.810;12.540;2022-07-06T14:47:17;23.20;53.40
20590;DHT22;10453;50.810;12.540;2022-07-06T14:51:36;22.40;52.90
20590;DHT22;10453;50.810;12.540;2022-07-06T14:55:53;23.80;51.70
20590;DHT22;10453;50.810;12.540;2022-07-06T15:00:12;25.10;51.20
20590;DHT22;10453;50.810;12.540;2022-07-06T15:04:29;25.90;50.40
20590;DHT22;10453;50.810;12.540;2022-07-06T15:08:47;27.30;48.30
20590;DHT22;10453;50.810;12.540;2022-07-06T15:13:04;25.60;48.10
20590;DHT22;10453;50.810;12.540;2022-07-06T15:17:23;23.50;53.20
20590;DHT22;10453;50.810;12.540;2022-07-06T15:21:40;23.10;53.70
20590;DHT22;10453;50.810;12.540;2022-07-06T15:25:58;25.30;51.10
20590;DHT22;10453;50.810;12.540;2022-07-06T15:30:16;25.30;49.30
20590;DHT22;10453;50.810;12.540;2022-07-06T15:34:47;24.10;50.70
20590;DHT22;10453;50.810;12.540;2022-07-06T15:39:05;23.20;52.70
20590;DHT22;10453;50.810;12.540;2022-07-06T15:43:22;24.60;49.90
20590;DHT22;10453;50.810;12.540;2022-07-06T15:47:40;25.20;49.60
20590;DHT22;10453;50.810;12.540;2022-07-06T15:51:58;24.00;49.80
20590;DHT22;10453;50.810;12.540;2022-07-06T15:56:15;22.10;50.80
20590;DHT22;10453;50.810;12.540;2022-07-06T16:00:33;22.20;51.20
20590;DHT22;10453;50.810;12.540;2022-07-06T16:04:51;23.20;51.80
20590;DHT22;10453;50.810;12.540;2022-07-06T16:09:08;23.20;53.80
20590;DHT22;10453;50.810;12.540;2022-07-06T16:13:25;23.20;52.60
20590;DHT22;10453;50.810;12.540;2022-07-06T16:17:43;23.30;51.10
20590;DHT22;10453;50.810;12.540;2022-07-06T16:22:01;22.90;51.70
20590;DHT22;10453;50.810;12.540;2022-07-06T16:26:18;22.40;50.90
20590;DHT22;10453;50.810;12.540;2022-07-06T16:30:36;22.50;51.50
20590;DHT22;10453;50.810;12.540;2022-07-06T16:34:53;22.00;51.10
20590;DHT22;10453;50.810;12.540;2022-07-06T16:39:10;21.70;52.40
20590;DHT22;10453;50.810;12.540;2022-07-06T16:43:28;21.40;51.60
20590;DHT22;10453;50.810;12.540;2022-07-06T16:47:47;21.40;54.50
20590;DHT22;10453;50.810;12.540;2022-07-06T16:52:11;21.30;52.20
20590;DHT22;10453;50.810;12.540;2022-07-06T16:56:28;21.10;52.70
20590;DHT22;10453;50.810;12.540;2022-07-06T17:00:46;21.20;52.60
20590;DHT22;10453;50.810;12.540;2022-07-06T17:05:04;21.30;53.10
20590;DHT22;10453;50.810;12.540;2022-07-06T17:09:21;21.40;53.30
20590;DHT22;10453;50.810;12.540;2022-07-06T17:13:39;21.50;52.50
20590;DHT22;10453;50.810;12.540;2022-07-06T17:17:57;21.10;52.30
20590;DHT22;10453;50.810;12.540;2022-07-06T17:22:15;21.00;53.20
20590;DHT22;10453;50.810;12.540;2022-07-06T17:26:37;20.90;53.10
20590;DHT22;10453;50.810;12.540;2022-07-06T17:30:55;20.90;52.90
20590;DHT22;10453;50.810;12.540;2022-07-06T17:35:13;20.80;53.50
20590;DHT22;10453;50.810;12.540;2022-07-06T17:39:31;20.70;53.70
20590;DHT22;10453;50.810;12.540;2022-07-06T17:43:48;20.50;55.30
20590;DHT22;10453;50.810;12.540;2022-07-06T17:48:06;20.40;55.60
20590;DHT22;10453;50.810;12.540;2022-07-06T17:52:23;20.00;54.50
20590;DHT22;10453;50.810;12.540;2022-07-06T17:56:41;19.90;54.90
20590;DHT22;10453;50.810;12.540;2022-07-06T18:00:58;19.80;56.00
20590;DHT22;10453;50.810;12.540;2022-07-06T18:05:16;19.70;54.90
20590;DHT22;10453;50.810;12.540;2022-07-06T18:09:33;19.70;55.50
20590;DHT22;10453;50.810;12.540;2022-07-06T18:13:51;19.50;55.50
20590;DHT22;10453;50.810;12.540;2022-07-06T18:18:09;19.40;56.00
20590;DHT22;10453;50.810;12.540;2022-07-06T18:22:26;19.40;56.90
20590;DHT22;10453;50.810;12.540;2022-07-06T18:26:45;19.10;56.80
20590;DHT22;10453;50.810;12.540;2022-07-06T18:31:03;18.90;57.20
20590;DHT22;10453;50.810;12.540;2022-07-06T18:35:21;19.00;58.00
20590;DHT22;10453;50.810;12.540;2022-07-06T18:39:39;19.00;58.10
20590;DHT22;10453;50.810;12.540;2022-07-06T18:43:56;18.90;58.50
20590;DHT22;10453;50.810;12.540;2022-07-06T18:48:14;18.70;58.60
20590;DHT22;10453;50.810;12.540;2022-07-06T18:52:31;18.60;58.60
20590;DHT22;10453;50.810;12.540;2022-07-06T18:56:57;18.50;58.50
20590;DHT22;10453;50.810;12.540;2022-07-06T19:01:16;18.50;59.10
20590;DHT22;10453;50.810;12.540;2022-07-06T19:05:33;18.40;58.50
20590;DHT22;10453;50.810;12.540;2022-07-06T19:09:51;18.30;59.00
20590;DHT22;10453;50.810;12.540;2022-07-06T19:14:09;18.20;59.20
20590;DHT22;10453;50.810;12.540;2022-07-06T19:18:26;18.20;59.70
20590;DHT22;10453;50.810;12.540;2022-07-06T19:22:45;17.90;59.60
20590;DHT22;10453;50.810;12.540;2022-07-06T19:27:02;17.70;61.40
20590;DHT22;10453;50.810;12.540;2022-07-06T19:31:21;17.60;60.90
20590;DHT22;10453;50.810;12.540;2022-07-06T19:35:39;17.40;61.60
20590;DHT22;10453;50.810;12.540;2022-07-06T19:39:57;17.30;62.10
20590;DHT22;10453;50.810;12.540;2022-07-06T19:44:20;17.10;63.40
20590;DHT22;10453;50.810;12.540;2022-07-06T19:48:37;16.90;62.70
20590;DHT22;10453;50.810;12.540;2022-07-06T19:52:54;16.80;63.30
20590;DHT22;10453;50.810;12.540;2022-07-06T19:57:11;16.70;63.50
20590;DHT22;10453;50.810;12.540;2022-07-06T20:01:29;16.60;64.00
20590;DHT22;10453;50.810;12.540;2022-07-06T20:05:52;16.50;64.10
20590;DHT22;10453;50.810;12.540;2022-07-06T20:10:09;16.40;65.70
20590;DHT22;10453;50.810;12.540;2022-07-06T20:14:26;16.30;65.40
20590;DHT22;10453;50.810;12.540;2022-07-06T20:18:43;16.20;64.80
20590;DHT22;10453;50.810;12.540;2022-07-06T20:23:05;16.10;65.30
20590;DHT22;10453;50.810;12.540;2022-07-06T20:27:22;16.00;65.10
20590;DHT22;10453;50.810;12.540;2022-07-06T20:31:40;16.00;65.90
20590;DHT22;10453;50.810;12.540;2022-07-06T20:35:58;15.80;69.70
20590;DHT22;10453;50.810;12.540;2022-07-06T20:40:15;15.40;73.90
20590;DHT22;10453;50.810;12.540;2022-07-06T20:44:32;15.00;76.40
20590;DHT22;10453;50.810;12.540;2022-07-06T20:48:49;14.60;81.00
20590;DHT22;10453;50.810;12.540;2022-07-06T20:53:06;14.40;83.90
20590;DHT22;10453;50.810;12.540;2022-07-06T20:57:24;14.20;88.40
20590;DHT22;10453;50.810;12.540;2022-07-06T21:01:42;13.90;90.60
20590;DHT22;10453;50.810;12.540;2022-07-06T21:06:00;13.80;94.30
20590;DHT22;10453;50.810;12.540;2022-07-06T21:10:17;13.60;98.00
20590;DHT22;10453;50.810;12.540;2022-07-06T21:14:35;13.50;99.90
20590;DHT22;10453;50.810;12.540;2022-07-06T21:18:52;13.40;99.90
20590;DHT22;10453;50.810;12.540;2022-07-06T21:23:09;13.40;99.90
20590;DHT22;10453;50.810;12.540;2022-07-06T21:27:27;13.20;99.90
20590;DHT22;10453;50.810;12.540;2022-07-06T21:31:45;12.90;99.90
20590;DHT22;10453;50.810;12.540;2022-07-06T21:36:03;12.70;99.90
20590;DHT22;10453;50.810;12.540;2022-07-06T21:40:20;12.60;99.90
20590;DHT22;10453;50.810;12.540;2022-07-06T21:44:37;12.40;99.90
20590;DHT22;10453;50.810;12.540;2022-07-06T21:48:55;12.20;99.90
20590;DHT22;10453;50.810;12.540;2022-07-06T21:53:12;12.10;99.90
20590;DHT22;10453;50.810;12.540;2022-07-06T21:57:29;12.30;99.90
20590;DHT22;10453;50.810;12.540;2022-07-06T22:01:46;12.30;99.90
20590;DHT22;10453;50.810;12.540;2022-07-06T22:06:04;12.20;99.90
20590;DHT22;10453;50.810;12.540;2022-07-06T22:10:21;12.00;99.90
20590;DHT22;10453;50.810;12.540;2022-07-06T22:14:38;12.00;99.90
20590;DHT22;10453;50.810;12.540;2022-07-06T22:18:56;11.90;99.90
20590;DHT22;10453;50.810;12.540;2022-07-06T22:23:13;11.80;99.90
20590;DHT22;10453;50.810;12.540;2022-07-06T22:27:31;11.70;99.90
20590;DHT22;10453;50.810;12.540;2022-07-06T22:31:48;11.70;99.90
20590;DHT22;10453;50.810;12.540;2022-07-06T22:36:06;11.60;99.90
20590;DHT22;10453;50.810;12.540;2022-07-06T22:40:23;11.60;99.90
20590;DHT22;10453;50.810;12.540;2022-07-06T22:44:59;11.60;99.90
20590;DHT22;10453;50.810;12.540;2022-07-06T22:49:16;11.60;99.90
20590;DHT22;10453;50.810;12.540;2022-07-06T22:53:34;11.50;99.90
20590;DHT22;10453;50.810;12.540;2022-07-06T22:57:51;11.50;99.90
20590;DHT22;10453;50.810;12.540;2022-07-06T23:02:08;11.40;99.90
20590;DHT22;10453;50.810;12.540;2022-07-06T23:06:26;11.50;99.90
20590;DHT22;10453;50.810;12.540;2022-07-06T23:10:43;11.60;99.90
20590;DHT22;10453;50.810;12.540;2022-07-06T23:15:01;11.50;99.90
20590;DHT22;10453;50.810;12.540;2022-07-06T23:19:18;11.50;99.90
20590;DHT22;10453;50.810;12.540;2022-07-06T23:23:35;11.60;99.90
20590;DHT22;10453;50.810;12.540;2022-07-06T23:27:53;11.60;99.90
20590;DHT22;10453;50.810;12.540;2022-07-06T23:32:10;11.60;99.90
20590;DHT22;10453;50.810;12.540;2022-07-06T23:36:27;11.70;99.90
20590;DHT22;10453;50.810;12.540;2022-07-06T23:40:44;11.60;99.90
20590;DHT22;10453;50.810;12.540;2022-07-06T23:45:02;11.70;99.90
20590;DHT22;10453;50.810;12.540;2022-07-06T23:49:19;11.70;99.90
20590;DHT22;10453;50.810;12.540;2022-07-06T23:53:36;11.80;99.90
20590;DHT22;10453;50.810;12.540;2022-07-06T23:57:53;11.90;99.90
